Time;durP1;ratioP1;P1;durP2;ratioP2;P2;SDS_P1;SDS_P2;PMS_P1;PMS_P2;Temp;Humidity;BMP_temperature;BMP_pressure;BME280_temperature;BME280_humidity;BME280_pressure;Samples;Min_cycle;Max_cycle;Signal;HPM_P1;HPM_P2
2022/06/10 00:00:09;;;;;;;0.65;0.65;;;13.00;99.90;;;;;;5156575;27;20196;-74
2022/06/10 00:02:35;;;;;;;0.50;0.50;;;13.10;99.90;;;;;;5156029;27;20194;-74
2022/06/10 00:05:01;;;;;;;0.60;0.60;;;13.10;99.90;;;;;;5156426;27;20205;-74
2022/06/10 00:07:33;;;;;;;0.70;0.70;;;13.00;99.90;;;;;;5156599;27;20579;-75
2022/06/10 00:10:00;;;;;;;0.75;0.75;;;13.00;99.90;;;;;;5137672;27;20242;-75
2022/06/10 00:12:25;;;;;;;0.57;0.55;;;13.00;99.90;;;;;;5137413;27;20198;-74
2022/06/10 00:14:51;;;;;;;0.50;0.50;;;13.00;99.90;;;;;;5137728;27;20201;-74
2022/06/10 00:17:17;;;;;;;2.33;1.13;;;13.00;99.90;;;;;;5137569;27;20198;-74
2022/06/10 00:19:44;;;;;;;0.60;0.60;;;12.90;99.90;;;;;;5155898;27;20720;-74
2022/06/10 00:22:09;;;;;;;0.82;0.82;;;12.90;99.90;;;;;;5156054;27;20273;-74
2022/06/10 00:24:35;;;;;;;0.73;0.73;;;12.90;99.90;;;;;;5155850;27;20277;-74
2022/06/10 00:27:01;;;;;;;0.50;0.50;;;12.90;99.90;;;;;;5156020;27;20186;-74
2022/06/10 00:29:26;;;;;;;0.60;0.60;;;12.90;99.90;;;;;;5155886;27;20258;-74
2022/06/10 00:31:52;;;;;;;1.70;0.95;;;12.90;99.90;;;;;;5137315;27;20286;-74
2022/06/10 00:34:19;;;;;;;1.30;1.20;;;12.90;99.90;;;;;;5155922;27;20186;-74
2022/06/10 00:36:45;;;;;;;0.70;0.70;;;12.90;99.90;;;;;;5155724;27;20194;-74
2022/06/10 00:39:10;;;;;;;0.95;0.88;;;12.90;99.90;;;;;;5155609;27;20266;-74
2022/06/10 00:41:41;;;;;;;0.60;0.60;;;12.90;99.90;;;;;;5136940;27;20194;-74
2022/06/10 00:44:29;;;;;;;0.52;0.52;;;13.00;99.90;;;;;;5155585;27;20213;-74
2022/06/10 00:46:56;;;;;;;0.60;0.60;;;13.00;99.90;;;;;;5155609;27;20182;-74
2022/06/10 00:49:22;;;;;;;0.68;0.68;;;12.90;99.90;;;;;;5128443;27;20191;-74
2022/06/10 00:51:51;;;;;;;0.60;0.60;;;12.90;99.90;;;;;;5134523;27;20217;-74
2022/06/10 00:54:25;;;;;;;0.68;0.68;;;12.90;99.90;;;;;;5134253;27;20661;-74
2022/06/10 00:57:04;;;;;;;0.50;0.50;;;12.90;99.90;;;;;;5135025;27;20210;-74
2022/06/10 00:59:38;;;;;;;0.82;0.80;;;12.90;99.90;;;;;;5147767;27;20318;-74
2022/06/10 01:02:10;;;;;;;0.82;0.82;;;12.90;99.90;;;;;;5155200;27;20190;-74
2022/06/10 01:04:36;;;;;;;0.70;0.70;;;12.90;99.90;;;;;;5136240;27;20209;-74
2022/06/10 01:07:02;;;;;;;0.60;0.60;;;12.90;99.90;;;;;;5136059;27;20688;-74
2022/06/10 01:09:30;;;;;;;0.70;0.70;;;12.90;99.90;;;;;;5155030;27;20660;-74
2022/06/10 01:12:15;;;;;;;4.72;0.95;;;12.90;99.90;;;;;;5155098;27;20193;-74
2022/06/10 01:15:04;;;;;;;0.52;0.52;;;13.00;99.90;;;;;;5154906;27;20206;-74
2022/06/10 01:17:46;;;;;;;0.60;0.60;;;12.90;99.90;;;;;;5134286;27;20195;-74
2022/06/10 01:20:18;;;;;;;1.48;0.95;;;12.90;99.90;;;;;;5115863;27;20294;-74
2022/06/10 01:22:54;;;;;;;0.52;0.52;;;12.90;99.90;;;;;;5115721;27;20199;-74
2022/06/10 01:26:07;;;;;;;1.48;1.10;;;12.90;99.90;;;;;;5133900;27;20214;-74
2022/06/10 01:28:54;;;;;;;0.70;0.70;;;12.90;99.90;;;;;;5133975;27;20190;-74
2022/06/10 01:31:47;;;;;;;1.02;1.02;;;12.90;99.90;;;;;;5133903;27;20201;-74
2022/06/10 01:34:31;;;;;;;0.60;0.60;;;12.90;99.90;;;;;;5115601;27;20205;-74
2022/06/10 01:37:15;;;;;;;0.90;0.90;;;12.90;99.90;;;;;;5147857;27;20194;-74
2022/06/10 01:40:01;;;;;;;0.50;0.50;;;12.90;99.90;;;;;;5135953;27;20232;-74
2022/06/10 01:42:29;;;;;;;0.50;0.50;;;12.90;99.90;;;;;;5154221;27;20660;-74
2022/06/10 01:45:32;;;;;;;0.50;0.50;;;12.90;99.90;;;;;;5154598;27;20216;-74
2022/06/10 01:48:04;;;;;;;0.70;0.70;;;12.80;99.90;;;;;;5136077;27;20193;-74
2022/06/10 01:51:01;;;;;;;0.65;0.65;;;12.80;99.90;;;;;;5153988;27;20309;-74
2022/06/10 01:53:30;;;;;;;0.50;0.50;;;12.70;99.90;;;;;;5142004;27;20199;-75
2022/06/10 01:56:11;;;;;;;0.60;0.60;;;12.80;99.90;;;;;;5135824;27;20254;-75
2022/06/10 01:59:03;;;;;;;3.13;1.23;;;12.80;99.90;;;;;;5154292;27;20244;-75
2022/06/10 02:01:34;;;;;;;1.20;0.95;;;12.80;99.90;;;;;;5151724;27;20616;-74
2022/06/10 02:04:07;;;;;;;0.80;0.80;;;12.80;99.90;;;;;;5135843;27;20572;-74
2022/06/10 02:06:38;;;;;;;1.50;0.95;;;12.80;99.90;;;;;;5135630;27;20198;-74
2022/06/10 02:09:09;;;;;;;0.50;0.50;;;12.80;99.90;;;;;;5135900;27;20217;-74
2022/06/10 02:11:40;;;;;;;0.50;0.50;;;12.80;99.90;;;;;;5135719;27;20196;-74
2022/06/10 02:14:17;;;;;;;0.50;0.50;;;12.80;99.90;;;;;;5154344;27;20238;-74
2022/06/10 02:16:48;;;;;;;0.50;0.50;;;12.80;99.90;;;;;;5154245;27;20217;-74
2022/06/10 02:19:28;;;;;;;0.88;0.88;;;12.80;99.90;;;;;;5140001;27;20186;-75
2022/06/10 02:22:01;;;;;;;0.60;0.60;;;12.80;99.90;;;;;;5119240;27;20199;-74
2022/06/10 02:24:41;;;;;;;0.80;0.80;;;12.80;99.90;;;;;;5136684;27;20562;-74
2022/06/10 02:27:20;;;;;;;0.60;0.60;;;12.70;99.90;;;;;;5139715;27;20280;-74
2022/06/10 02:30:07;;;;;;;0.60;0.60;;;12.70;99.90;;;;;;5158269;27;20186;-74
2022/06/10 02:32:34;;;;;;;0.60;0.60;;;12.60;99.90;;;;;;5157810;27;20228;-74
2022/06/10 02:35:00;;;;;;;0.90;0.88;;;12.60;99.90;;;;;;5139571;27;20229;-74
2022/06/10 02:37:38;;;;;;;5.65;1.40;;;12.60;99.90;;;;;;5139348;27;20232;-74
2022/06/10 02:40:17;;;;;;;0.60;0.60;;;12.60;99.90;;;;;;5158147;27;20560;-74
2022/06/10 02:42:49;;;;;;;0.70;0.70;;;12.70;99.90;;;;;;5158002;27;20190;-74
2022/06/10 02:45:37;;;;;;;0.68;0.68;;;12.70;99.90;;;;;;5139292;27;20680;-74
2022/06/10 02:48:09;;;;;;;1.17;1.13;;;12.70;99.90;;;;;;5139463;27;20190;-74
2022/06/10 02:50:35;;;;;;;0.82;0.82;;;12.70;99.90;;;;;;5157102;27;20221;-75
2022/06/10 02:53:03;;;;;;;0.60;0.60;;;12.70;99.90;;;;;;5139321;27;20225;-75
2022/06/10 02:55:30;;;;;;;0.50;0.50;;;12.70;99.90;;;;;;5157678;27;20216;-74
2022/06/10 03:01:14;;;;;;;0.85;0.75;;;12.70;99.90;;;;;;5152229;27;20206;-75
2022/06/10 03:04:07;;;;;;;0.60;0.60;;;12.70;99.90;;;;;;5128202;27;20572;-74
2022/06/10 03:07:12;;;;;;;1.17;0.77;;;12.80;99.90;;;;;;5157489;27;20207;-74
2022/06/10 03:10:06;;;;;;;0.57;0.57;;;12.80;99.90;;;;;;5136780;27;20600;-75
2022/06/10 03:12:57;;;;;;;1.10;1.00;;;12.70;99.90;;;;;;5136650;27;20195;-75
2022/06/10 03:15:32;;;;;;;1.13;1.10;;;12.60;99.90;;;;;;5133374;27;20214;-74
2022/06/10 03:18:04;;;;;;;1.08;0.75;;;12.60;99.90;;;;;;5136756;27;20649;-74
2022/06/10 03:21:08;;;;;;;1.95;1.38;;;12.60;99.90;;;;;;5133794;27;20281;-74
2022/06/10 03:24:05;;;;;;;0.60;0.60;;;12.60;99.90;;;;;;5153826;27;20296;-74
2022/06/10 03:26:49;;;;;;;1.17;1.02;;;12.60;99.90;;;;;;5137606;27;20194;-75
2022/06/10 03:29:35;;;;;;;0.63;0.63;;;12.60;99.90;;;;;;5156312;27;20194;-75
2022/06/10 03:32:27;;;;;;;1.17;1.08;;;12.60;99.90;;;;;;5138534;27;20190;-74
2022/06/10 03:35:00;;;;;;;1.05;1.05;;;12.70;99.90;;;;;;5147782;27;20469;-74
2022/06/10 03:37:27;;;;;;;1.98;1.20;;;12.80;99.90;;;;;;5156857;27;20194;-74
2022/06/10 03:39:55;;;;;;;0.73;0.73;;;12.80;99.90;;;;;;5157076;27;20775;-74
2022/06/10 03:42:23;;;;;;;0.50;0.50;;;12.80;99.90;;;;;;5156607;27;20186;-74
2022/06/10 03:44:54;;;;;;;1.35;1.25;;;12.90;99.90;;;;;;5156749;27;20206;-75
2022/06/10 03:47:30;;;;;;;0.90;0.90;;;12.90;99.90;;;;;;5156394;27;20217;-74
2022/06/10 03:50:07;;;;;;;1.10;1.02;;;13.00;99.90;;;;;;5137826;27;20221;-74
2022/06/10 03:52:36;;;;;;;0.70;0.70;;;13.10;99.90;;;;;;5137916;27;20281;-74
2022/06/10 03:55:04;;;;;;;6.32;3.03;;;13.10;99.90;;;;;;5137964;27;20705;-74
2022/06/10 03:57:30;;;;;;;0.90;0.90;;;13.20;99.90;;;;;;5156590;27;20602;-75
2022/06/10 03:59:56;;;;;;;0.70;0.70;;;13.30;99.90;;;;;;5138049;27;20194;-75
2022/06/10 04:02:22;;;;;;;2.83;1.15;;;13.40;99.90;;;;;;5156196;27;20198;-75
2022/06/10 04:04:48;;;;;;;0.80;0.77;;;13.40;99.90;;;;;;5156383;27;20217;-74
2022/06/10 04:07:17;;;;;;;2.63;1.75;;;13.60;99.90;;;;;;5137858;27;20228;-75
2022/06/10 04:09:44;;;;;;;1.17;1.08;;;13.70;99.90;;;;;;5137811;27;20534;-74
2022/06/10 04:12:10;;;;;;;2.75;1.13;;;13.80;99.90;;;;;;5137652;27;20202;-74
2022/06/10 04:14:36;;;;;;;2.58;1.15;;;13.90;99.90;;;;;;5156213;27;20190;-74
2022/06/10 04:17:03;;;;;;;2.20;1.48;;;14.00;99.90;;;;;;5156031;27;20194;-75
2022/06/10 04:19:29;;;;;;;1.50;1.25;;;14.00;99.90;;;;;;5137497;27;20226;-74
2022/06/10 04:21:54;;;;;;;0.98;0.93;;;14.00;99.90;;;;;;5137626;27;20277;-74
2022/06/10 04:24:20;;;;;;;3.10;1.02;;;14.10;99.90;;;;;;5137014;27;20206;-74
2022/06/10 04:26:46;;;;;;;1.27;1.15;;;14.10;99.90;;;;;;5137492;27;20626;-74
2022/06/10 04:29:15;;;;;;;2.83;0.90;;;14.30;99.90;;;;;;5137473;27;20200;-74
2022/06/10 04:31:41;;;;;;;0.82;0.82;;;14.40;99.90;;;;;;5155739;27;20269;-74
2022/06/10 04:34:08;;;;;;;0.95;0.73;;;14.50;99.90;;;;;;5156084;27;20238;-73
2022/06/10 04:36:34;;;;;;;0.95;0.95;;;14.70;99.90;;;;;;5155714;27;20641;-74
2022/06/10 04:39:00;;;;;;;0.70;0.70;;;14.70;99.90;;;;;;5155704;27;20262;-74
2022/06/10 04:41:26;;;;;;;0.98;0.98;;;14.80;99.90;;;;;;5154436;27;20660;-73
2022/06/10 04:43:52;;;;;;;2.60;1.00;;;15.00;99.90;;;;;;5137155;27;20194;-74
2022/06/10 04:46:34;;;;;;;0.63;0.63;;;15.10;99.90;;;;;;5155509;27;20559;-74
2022/06/10 04:49:00;;;;;;;0.70;0.70;;;15.20;99.90;;;;;;5150823;27;20183;-74
2022/06/10 04:51:26;;;;;;;0.70;0.70;;;15.30;99.90;;;;;;5134521;27;20304;-74
2022/06/10 04:53:52;;;;;;;0.95;0.90;;;15.40;99.90;;;;;;5137055;27;20239;-74
2022/06/10 04:56:18;;;;;;;1.92;1.25;;;15.50;99.90;;;;;;5155478;27;20190;-74
2022/06/10 04:58:44;;;;;;;0.70;0.70;;;15.60;99.90;;;;;;5155484;27;20201;-74
2022/06/10 05:01:10;;;;;;;1.73;1.63;;;15.70;99.90;;;;;;5136643;27;20210;-74
2022/06/10 05:03:36;;;;;;;0.93;0.93;;;15.80;99.90;;;;;;5155230;27;20558;-74
2022/06/10 05:06:02;;;;;;;0.75;0.75;;;15.90;99.90;;;;;;5155251;27;20202;-74
2022/06/10 05:08:28;;;;;;;0.85;0.85;;;16.00;99.90;;;;;;5136523;27;20194;-74
2022/06/10 05:10:54;;;;;;;1.05;0.70;;;16.20;99.90;;;;;;5136742;27;20212;-74
2022/06/10 05:13:20;;;;;;;0.73;0.73;;;16.10;99.90;;;;;;5154969;27;20233;-76
2022/06/10 05:15:47;;;;;;;1.20;1.02;;;16.10;99.90;;;;;;5155059;27;20193;-74
2022/06/10 05:18:16;;;;;;;0.75;0.75;;;16.20;99.90;;;;;;5155103;27;20262;-74
2022/06/10 05:20:43;;;;;;;0.77;0.55;;;16.20;99.90;;;;;;5154849;27;20660;-74
2022/06/10 05:23:12;;;;;;;0.75;0.75;;;16.30;99.90;;;;;;5155169;27;20664;-74
2022/06/10 05:25:38;;;;;;;0.38;0.38;;;16.30;99.90;;;;;;5154762;27;20206;-74
2022/06/10 05:28:06;;;;;;;0.40;0.40;;;16.30;99.90;;;;;;5155267;27;20186;-74
2022/06/10 05:30:34;;;;;;;1.02;0.80;;;16.40;99.90;;;;;;5154869;27;20628;-74
2022/06/10 05:33:02;;;;;;;1.05;0.93;;;16.40;99.90;;;;;;5136393;27;20194;-74
2022/06/10 05:35:28;;;;;;;0.85;0.77;;;16.40;99.90;;;;;;5136228;27;20277;-73
2022/06/10 05:37:54;;;;;;;0.80;0.80;;;16.40;99.90;;;;;;5154759;27;20671;-74
2022/06/10 05:40:23;;;;;;;1.08;0.68;;;16.40;99.90;;;;;;5135866;27;20687;-75
2022/06/10 05:42:49;;;;;;;1.63;0.80;;;16.40;99.90;;;;;;5154737;27;20197;-74
2022/06/10 05:45:17;;;;;;;1.48;0.98;;;16.40;99.90;;;;;;5154550;27;20202;-74
2022/06/10 05:47:45;;;;;;;0.50;0.50;;;16.50;99.90;;;;;;5135760;27;20186;-74
2022/06/10 05:50:22;;;;;;;0.40;0.40;;;16.50;99.90;;;;;;5139111;27;20689;-74
2022/06/10 05:52:48;;;;;;;0.30;0.30;;;16.60;99.90;;;;;;5133685;27;20187;-74
2022/06/10 05:55:14;;;;;;;0.85;0.85;;;16.70;99.90;;;;;;5133912;27;20190;-74
2022/06/10 05:57:41;;;;;;;1.08;0.80;;;16.70;99.90;;;;;;5148495;27;20626;-74
2022/06/10 06:00:13;;;;;;;0.80;0.80;;;16.70;99.90;;;;;;5135931;27;20676;-74
2022/06/10 06:02:40;;;;;;;1.05;0.68;;;16.80;99.90;;;;;;5135606;27;20202;-73
2022/06/10 06:05:07;;;;;;;1.48;1.00;;;16.90;99.90;;;;;;5154156;27;20201;-74
2022/06/10 06:07:33;;;;;;;0.43;0.43;;;16.90;99.90;;;;;;5135639;27;20190;-74
2022/06/10 06:09:59;;;;;;;0.60;0.60;;;17.00;99.90;;;;;;5154619;27;20753;-74
2022/06/10 06:12:25;;;;;;;0.52;0.52;;;17.10;99.90;;;;;;5154253;27;20187;-73
2022/06/10 06:14:51;;;;;;;0.75;0.75;;;17.10;99.90;;;;;;5154474;27;20660;-74
2022/06/10 06:17:19;;;;;;;0.70;0.70;;;17.10;99.90;;;;;;5135557;27;20201;-74
2022/06/10 06:19:45;;;;;;;1.30;0.70;;;17.20;99.90;;;;;;5135709;27;20201;-73
2022/06/10 06:22:10;;;;;;;1.15;0.85;;;17.20;99.90;;;;;;5154271;27;20186;-74
2022/06/10 06:24:38;;;;;;;0.63;0.60;;;17.10;99.90;;;;;;5154106;27;20200;-73
2022/06/10 06:27:06;;;;;;;0.40;0.40;;;17.20;99.90;;;;;;5154261;27;20661;-74
2022/06/10 06:29:31;;;;;;;0.80;0.80;;;17.20;99.90;;;;;;5154154;27;20281;-74
2022/06/10 06:31:57;;;;;;;1.10;0.68;;;17.20;99.90;;;;;;5154244;27;20218;-73
2022/06/10 06:34:25;;;;;;;0.82;0.82;;;17.20;99.90;;;;;;5154247;27;20566;-74
2022/06/10 06:36:53;;;;;;;0.32;0.32;;;17.10;99.90;;;;;;5154204;27;20235;-74
2022/06/10 06:39:23;;;;;;;2.70;1.60;;;17.00;99.90;;;;;;5135478;27;20721;-74
2022/06/10 06:41:49;;;;;;;0.77;0.70;;;17.00;99.90;;;;;;5153986;27;20258;-74
2022/06/10 06:44:15;;;;;;;0.68;0.68;;;16.90;99.90;;;;;;5153985;27;20190;-74
2022/06/10 06:46:43;;;;;;;0.70;0.68;;;16.90;99.90;;;;;;5154003;27;20235;-74
2022/06/10 06:49:13;;;;;;;0.47;0.47;;;17.00;99.90;;;;;;5147684;27;20198;-74
2022/06/10 06:51:40;;;;;;;0.55;0.55;;;17.10;99.90;;;;;;5132949;27;20696;-74
2022/06/10 06:54:07;;;;;;;1.08;1.05;;;17.20;99.90;;;;;;5149708;27;20230;-74
2022/06/10 06:56:33;;;;;;;0.80;0.80;;;17.30;99.90;;;;;;5135414;27;20584;-74
2022/06/10 06:58:58;;;;;;;0.50;0.50;;;17.30;99.90;;;;;;5154034;27;20675;-74
2022/06/10 07:01:24;;;;;;;1.17;1.02;;;17.40;99.90;;;;;;5135009;27;20210;-75
2022/06/10 07:03:50;;;;;;;0.80;0.80;;;17.40;99.90;;;;;;5154365;27;20242;-74
2022/06/10 07:06:16;;;;;;;0.95;0.95;;;17.60;99.90;;;;;;5157645;27;20286;-74
2022/06/10 07:08:42;;;;;;;4.95;1.17;;;17.60;99.90;;;;;;5139097;27;20652;-74
2022/06/10 07:11:08;;;;;;;0.75;0.63;;;17.50;99.90;;;;;;5139334;27;20194;-74
2022/06/10 07:13:36;;;;;;;0.63;0.63;;;17.40;99.90;;;;;;5157416;27;20197;-74
2022/06/10 07:16:03;;;;;;;0.70;0.52;;;17.30;99.90;;;;;;5139095;27;20601;-74
2022/06/10 07:18:30;;;;;;;0.50;0.50;;;17.30;99.90;;;;;;5157675;27;20217;-73
2022/06/10 07:20:56;;;;;;;2.03;1.52;;;17.40;99.90;;;;;;5157702;27;20201;-74
2022/06/10 07:23:22;;;;;;;0.90;0.80;;;17.40;99.90;;;;;;5157402;27;20559;-74
2022/06/10 07:25:48;;;;;;;0.73;0.63;;;17.30;99.90;;;;;;5157509;27;20202;-74
2022/06/10 07:28:14;;;;;;;0.55;0.55;;;17.30;99.90;;;;;;5157429;27;20198;-74
2022/06/10 07:30:42;;;;;;;0.68;0.68;;;17.40;99.90;;;;;;5138957;27;21500;-74
2022/06/10 07:33:07;;;;;;;0.63;0.63;;;17.40;99.90;;;;;;5139595;27;20194;-73
2022/06/10 07:35:34;;;;;;;0.50;0.50;;;17.40;99.90;;;;;;5139518;27;20542;-75
2022/06/10 07:38:01;;;;;;;0.73;0.55;;;17.50;99.90;;;;;;5158443;27;20220;-75
2022/06/10 07:43:22;;;;;;;0.45;0.45;;;17.70;99.90;;;;;;5158449;27;20580;-73
2022/06/10 07:45:48;;;;;;;0.40;0.40;;;17.70;99.90;;;;;;5166003;27;20198;-74
2022/06/10 07:48:14;;;;;;;0.30;0.30;;;17.80;99.90;;;;;;5168043;27;20186;-75
2022/06/10 07:50:42;;;;;;;0.70;0.70;;;18.00;99.90;;;;;;5128758;27;20685;-74
2022/06/10 07:53:09;;;;;;;0.45;0.45;;;18.20;99.90;;;;;;5137527;27;20627;-73
2022/06/10 07:55:35;;;;;;;1.27;0.47;;;18.30;99.90;;;;;;5136536;27;20542;-74
2022/06/10 07:58:01;;;;;;;0.50;0.50;;;18.40;99.90;;;;;;5137064;27;20551;-73
2022/06/10 08:00:27;;;;;;;0.65;0.65;;;18.40;99.90;;;;;;5141059;27;20186;-74
2022/06/10 08:02:53;;;;;;;0.98;0.98;;;18.50;99.90;;;;;;5157034;27;20273;-73
2022/06/10 08:05:22;;;;;;;0.50;0.50;;;18.50;99.90;;;;;;5156753;27;20212;-73
2022/06/10 08:07:48;;;;;;;0.73;0.47;;;18.60;99.90;;;;;;5138370;27;20232;-74
2022/06/10 08:10:24;;;;;;;0.65;0.65;;;18.60;99.90;;;;;;5157143;27;20666;-75
2022/06/10 08:12:50;;;;;;;0.40;0.40;;;18.70;99.90;;;;;;5142670;27;20225;-74
2022/06/10 08:15:18;;;;;;;0.65;0.60;;;18.90;99.90;;;;;;5156983;27;20235;-75
2022/06/10 08:17:44;;;;;;;0.70;0.70;;;19.00;99.90;;;;;;5156707;27;20321;-75
2022/06/10 08:23:22;;;;;;;0.30;0.30;;;19.30;99.90;;;;;;5165958;27;20231;-74
2022/06/10 08:25:49;;;;;;;0.40;0.40;;;19.20;99.90;;;;;;5164725;27;20197;-74
2022/06/10 08:28:14;;;;;;;0.43;0.43;;;19.30;99.90;;;;;;5147702;27;20258;-75
2022/06/10 08:30:40;;;;;;;0.20;0.20;;;19.30;99.90;;;;;;5164167;27;20221;-74
2022/06/10 08:33:06;;;;;;;0.20;0.20;;;19.60;99.90;;;;;;5156114;27;20193;-74
2022/06/10 08:35:34;;;;;;;1.17;1.00;;;19.80;99.90;;;;;;5155789;27;20194;-74
2022/06/10 08:38:02;;;;;;;0.30;0.30;;;20.00;99.90;;;;;;5137395;27;20737;-75
2022/06/10 08:40:52;;;;;;;0.50;0.50;;;20.00;99.90;;;;;;5155712;27;20194;-75
2022/06/10 08:43:34;;;;;;;0.25;0.25;;;19.60;99.90;;;;;;5155747;27;20277;-73
2022/06/10 08:46:15;;;;;;;0.43;0.40;;;19.60;99.90;;;;;;5155588;27;20212;-74
2022/06/10 08:49:10;;;;;;;0.30;0.30;;;19.50;99.90;;;;;;5153113;27;20189;-74
2022/06/10 08:52:16;;;;;;;0.20;0.20;;;19.50;99.90;;;;;;5134645;27;20240;-74
2022/06/10 08:54:59;;;;;;;0.85;0.60;;;19.80;99.90;;;;;;5116392;27;20194;-75
2022/06/10 08:57:36;;;;;;;1.80;0.70;;;20.10;99.90;;;;;;5145708;27;20230;-74
2022/06/10 09:00:20;;;;;;;0.60;0.50;;;20.00;99.90;;;;;;5155616;27;20196;-74
2022/06/10 09:02:50;;;;;;;0.52;0.52;;;19.80;99.90;;;;;;5155398;27;20190;-74
2022/06/10 09:05:22;;;;;;;0.75;0.70;;;19.60;99.90;;;;;;5136827;27;20217;-74
2022/06/10 09:07:56;;;;;;;0.40;0.40;;;19.30;99.90;;;;;;5134746;27;20190;-74
2022/06/10 09:10:50;;;;;;;0.68;0.40;;;19.00;99.90;;;;;;5116015;27;20220;-74
2022/06/10 09:13:35;;;;;;;0.50;0.50;;;18.80;99.90;;;;;;5134582;27;20187;-74
2022/06/10 09:16:16;;;;;;;0.30;0.30;;;18.60;99.90;;;;;;5116128;27;20221;-74
2022/06/10 09:19:04;;;;;;;0.77;0.57;;;18.50;99.90;;;;;;5134360;27;20254;-74
2022/06/10 09:22:07;;;;;;;0.20;0.20;;;18.30;99.90;;;;;;5134505;27;20653;-73
2022/06/10 09:25:24;;;;;;;0.43;0.43;;;18.20;99.90;;;;;;5115772;27;20202;-73
2022/06/10 09:27:55;;;;;;;0.30;0.30;;;18.10;99.90;;;;;;5110218;27;20198;-73
2022/06/10 09:30:32;;;;;;;0.30;0.30;;;18.30;99.90;;;;;;5115681;27;20198;-74
2022/06/10 09:33:22;;;;;;;0.50;0.50;;;18.50;99.90;;;;;;5134363;27;20335;-74
2022/06/10 09:36:16;;;;;;;0.60;0.38;;;18.60;99.90;;;;;;5134200;27;20274;-74
2022/06/10 09:38:46;;;;;;;0.30;0.30;;;18.90;99.90;;;;;;5115723;27;20194;-74
2022/06/10 09:41:42;;;;;;;0.77;0.70;;;19.20;99.90;;;;;;5136151;27;20252;-74
2022/06/10 09:44:15;;;;;;;0.30;0.30;;;19.60;99.90;;;;;;5154784;27;20286;-74
2022/06/10 09:46:49;;;;;;;0.30;0.30;;;19.90;99.90;;;;;;5154755;27;20194;-74
2022/06/10 09:49:38;;;;;;;0.30;0.30;;;20.20;99.90;;;;;;5154529;27;20205;-74
2022/06/10 09:52:19;;;;;;;0.30;0.30;;;20.60;99.90;;;;;;5135927;27;20224;-74
2022/06/10 09:54:48;;;;;;;0.40;0.40;;;20.90;99.90;;;;;;5154435;27;20328;-74
2022/06/10 09:57:55;;;;;;;0.20;0.20;;;21.20;99.90;;;;;;5154764;27;20246;-74
2022/06/10 10:00:21;;;;;;;0.47;0.47;;;21.20;99.90;;;;;;5154371;27;20189;-75
2022/06/10 10:03:24;;;;;;;0.38;0.38;;;21.20;99.90;;;;;;5135648;27;20189;-74
2022/06/10 10:06:14;;;;;;;0.20;0.20;;;21.20;99.90;;;;;;5154488;27;20208;-74
2022/06/10 10:08:48;;;;;;;0.30;0.30;;;21.20;99.90;;;;;;5154490;27;20668;-74
2022/06/10 10:11:31;;;;;;;0.20;0.20;;;21.10;99.90;;;;;;5154369;27;20277;-74
2022/06/10 10:13:57;;;;;;;0.20;0.20;;;20.80;99.90;;;;;;5154618;27;20222;-74
2022/06/10 10:16:32;;;;;;;0.32;0.30;;;20.80;99.90;;;;;;5135874;27;20229;-74
2022/06/10 10:19:35;;;;;;;0.30;0.30;;;20.60;99.90;;;;;;5154426;27;20255;-74
2022/06/10 10:22:25;;;;;;;0.65;0.57;;;20.60;99.90;;;;;;5135736;27;20194;-74
2022/06/10 10:24:51;;;;;;;0.30;0.30;;;20.50;99.90;;;;;;5154344;27;20297;-74
2022/06/10 10:27:27;;;;;;;0.55;0.55;;;20.30;99.90;;;;;;5154130;27;20213;-74
2022/06/10 10:30:04;;;;;;;0.30;0.30;;;20.20;99.90;;;;;;5154454;27;20182;-75
2022/06/10 10:32:34;;;;;;;0.32;0.32;;;20.10;99.90;;;;;;5154329;27;20189;-74
2022/06/10 10:35:15;;;;;;;0.47;0.47;;;20.00;99.90;;;;;;5154444;27;20665;-74
2022/06/10 10:37:52;;;;;;;0.30;0.30;;;20.00;99.90;;;;;;5154011;27;20206;-75
2022/06/10 10:40:20;;;;;;;0.38;0.38;;;19.90;99.90;;;;;;5138388;27;20221;-74
2022/06/10 10:42:49;;;;;;;0.57;0.40;;;19.90;99.90;;;;;;5157115;27;20216;-74
2022/06/10 10:46:02;;;;;;;0.40;0.40;;;19.80;99.90;;;;;;5158075;27;20565;-75
2022/06/10 10:48:42;;;;;;;0.55;0.38;;;20.00;99.90;;;;;;5111341;27;20224;-73
2022/06/10 10:51:11;;;;;;;0.30;0.30;;;20.20;99.90;;;;;;5118659;27;20251;-74
2022/06/10 10:53:45;;;;;;;1.17;0.77;;;20.10;99.90;;;;;;5137273;27;20194;-74
2022/06/10 10:56:14;;;;;;;0.50;0.50;;;20.10;99.90;;;;;;5137283;27;20676;-74
2022/06/10 10:58:52;;;;;;;0.63;0.55;;;20.10;99.90;;;;;;5144176;27;20201;-74
2022/06/10 11:01:46;;;;;;;1.77;1.60;;;20.20;99.90;;;;;;5157786;27;20186;-74
2022/06/10 11:04:36;;;;;;;0.30;0.30;;;20.20;99.90;;;;;;5157864;27;20197;-74
2022/06/10 11:07:04;;;;;;;1.02;0.70;;;20.20;99.90;;;;;;5157816;27;20198;-74
2022/06/10 11:09:31;;;;;;;0.60;0.60;;;20.10;99.90;;;;;;5138943;27;20190;-74
2022/06/10 11:12:01;;;;;;;1.25;0.80;;;20.10;99.90;;;;;;5139210;27;20194;-75
2022/06/10 11:14:32;;;;;;;0.55;0.55;;;20.10;99.90;;;;;;5157459;27;20190;-74
2022/06/10 11:17:00;;;;;;;0.65;0.50;;;20.40;99.90;;;;;;5138958;27;20202;-74
2022/06/10 11:19:41;;;;;;;0.57;0.50;;;20.60;99.90;;;;;;5138740;27;20680;-74
2022/06/10 11:22:06;;;;;;;0.50;0.50;;;21.00;99.90;;;;;;5157240;27;20194;-74
2022/06/10 11:24:44;;;;;;;0.88;0.68;;;21.10;99.90;;;;;;5138391;27;20190;-75
2022/06/10 11:27:32;;;;;;;0.30;0.30;;;20.90;99.90;;;;;;5157329;27;20194;-74
2022/06/10 11:30:08;;;;;;;0.73;0.63;;;20.90;99.90;;;;;;5138721;27;20190;-74
2022/06/10 11:32:47;;;;;;;0.52;0.45;;;21.10;99.90;;;;;;5157130;27;20280;-75
2022/06/10 11:35:23;;;;;;;0.50;0.50;;;21.30;99.90;;;;;;5157062;27;20205;-74
2022/06/10 11:38:06;;;;;;;1.65;0.52;;;21.30;99.90;;;;;;5138889;27;20288;-75
2022/06/10 11:40:43;;;;;;;0.70;0.70;;;21.40;99.90;;;;;;5156742;27;20668;-74
2022/06/10 11:43:39;;;;;;;2.88;0.63;;;21.10;99.90;;;;;;5138601;27;20202;-74
2022/06/10 11:46:13;;;;;;;0.40;0.40;;;20.80;99.90;;;;;;5157061;27;20205;-74
2022/06/10 11:48:51;;;;;;;0.60;0.60;;;20.50;99.90;;;;;;5154679;27;20224;-74
2022/06/10 11:51:44;;;;;;;1.10;0.60;;;20.50;99.90;;;;;;5113385;28;20219;-75
2022/06/10 11:54:50;;;;;;;0.70;0.70;;;20.50;99.90;;;;;;5116214;27;20654;-75
2022/06/10 12:00:55;;;;;;;0.43;0.43;;;20.20;99.90;;;;;;5136138;27;20201;-74
2022/06/10 12:03:48;;;;;;;0.20;0.20;;;20.00;99.90;;;;;;5134464;27;20187;-75
2022/06/10 12:06:31;;;;;;;0.60;0.20;;;20.10;99.90;;;;;;5135763;27;20263;-75
2022/06/10 12:09:21;;;;;;;0.20;0.20;;;20.50;99.90;;;;;;5135910;27;20524;-74
2022/06/10 12:12:13;;;;;;;0.20;0.20;;;21.10;99.90;;;;;;5136171;27;20186;-73
2022/06/10 12:14:47;;;;;;;1.00;0.65;;;21.30;99.90;;;;;;5111457;27;20226;-74
2022/06/10 12:17:33;;;;;;;0.22;0.22;;;22.10;99.90;;;;;;5134379;27;20190;-75
2022/06/10 12:20:06;;;;;;;0.20;0.20;;;22.30;99.90;;;;;;5135619;27;20603;-74
2022/06/10 12:22:34;;;;;;;0.57;0.57;;;22.10;99.90;;;;;;5134033;27;20195;-74
2022/06/10 12:25:00;;;;;;;0.63;0.63;;;22.00;99.90;;;;;;5135472;27;20199;-73
2022/06/10 12:27:48;;;;;;;0.47;0.47;;;22.10;99.90;;;;;;5135323;27;20183;-74
2022/06/10 12:30:37;;;;;;;0.40;0.40;;;22.00;99.90;;;;;;5133988;27;20252;-74
2022/06/10 12:33:27;;;;;;;0.45;0.45;;;22.00;99.90;;;;;;5134024;27;20213;-74
2022/06/10 12:35:55;;;;;;;15.27;0.50;;;22.50;99.90;;;;;;5133852;27;20205;-74
2022/06/10 12:38:25;;;;;;;0.50;0.50;;;23.00;99.90;;;;;;5133859;27;20555;-73
2022/06/10 12:41:15;;;;;;;0.20;0.20;;;23.10;99.90;;;;;;5133836;27;20687;-74
2022/06/10 12:43:49;;;;;;;0.90;0.50;;;23.70;99.90;;;;;;5114559;28;20214;-74
2022/06/10 12:46:45;;;;;;;0.20;0.20;;;25.10;99.90;;;;;;5114400;28;20222;-74
2022/06/10 12:49:25;;;;;;;0.15;0.15;;;25.70;99.90;;;;;;5120828;27;20194;-75
2022/06/10 12:52:21;;;;;;;0.90;0.60;;;25.00;99.90;;;;;;5133474;27;20631;-73
2022/06/10 12:54:47;;;;;;;1.48;0.80;;;24.00;99.90;;;;;;5133715;27;20293;-74
2022/06/10 12:57:22;;;;;;;0.40;0.40;;;22.80;99.90;;;;;;5135048;27;20227;-74
2022/06/10 12:59:49;;;;;;;0.50;0.50;;;22.30;99.90;;;;;;5135043;27;20226;-74
2022/06/10 13:02:43;;;;;;;0.82;0.75;;;22.30;99.90;;;;;;5132559;27;20691;-75
2022/06/10 13:05:16;;;;;;;0.20;0.20;;;22.10;99.90;;;;;;5134838;27;20199;-74
2022/06/10 13:07:43;;;;;;;0.75;0.57;;;21.70;99.90;;;;;;5134552;27;20194;-74
2022/06/10 13:10:33;;;;;;;0.32;0.32;;;21.40;99.90;;;;;;5133266;27;20251;-74
2022/06/10 13:13:23;;;;;;;0.63;0.57;;;21.20;99.90;;;;;;5134621;27;20541;-75
2022/06/10 13:16:34;;;;;;;1.40;0.90;;;21.00;99.90;;;;;;5133054;27;20191;-75
2022/06/10 13:19:00;;;;;;;3.80;0.43;;;21.00;99.90;;;;;;5134361;27;20218;-75
2022/06/10 13:21:32;;;;;;;0.40;0.40;;;20.60;99.90;;;;;;5133007;27;20206;-75
2022/06/10 13:24:24;;;;;;;0.38;0.38;;;20.70;99.90;;;;;;5134409;27;20247;-75
2022/06/10 13:26:51;;;;;;;0.90;0.50;;;21.10;99.90;;;;;;5131334;27;20210;-75
2022/06/10 13:29:21;;;;;;;1.00;0.47;;;21.30;99.90;;;;;;5134353;27;20187;-75
2022/06/10 13:31:53;;;;;;;1.85;0.45;;;21.40;99.90;;;;;;5133072;27;20198;-75
2022/06/10 13:34:25;;;;;;;0.57;0.57;;;21.50;99.90;;;;;;5134284;27;20247;-75
2022/06/10 13:36:58;;;;;;;0.75;0.75;;;21.80;99.90;;;;;;5134323;27;20215;-75